Vliegveldwaarnemingen Nederland - (AUTO) METAR

Luchtvaartmeteorologische informatie voor operationeel gebruik en vluchtvoorbereiding is beschikbaar op www.luchtvaartmeteo.nl.

ZCZC
SA150455 EHFS     VLISSINGEN AWS   NLD   8 m.
METAR EHFS 150455Z AUTO 11004KT 070V140 9999 NCD 17/14 Q1011=

ZCZC
SA150455 EHSG     BSA   NLD   43 m.
METAR EHSG 150455Z AUTO 17005KT //// // NCD 18/13 Q1011 RE//=

ZCZC
SA150525 EHKD     DE KOOY/DE KOOY   NLD   1 m.
METAR EHKD 150525Z AUTO 21002KT 9999 NCD 15/14 Q1011
BLU NOSIG=

ZCZC
SA150525 EHFD     F3-FB-1   NLD   50 m.
METAR EHFD 150525Z AUTO 28019KT 9999 DZ FEW003/// SCT004/// BKN005///
14/13 Q1009=

ZCZC
SA150525 EHAM     AMSTERDAM/SCHIPHOL   NLD   -3 m.
METAR EHAM 150525Z 13003KT 9999 FEW043 15/13 Q1012 NOSIG=

ZCZC
SA150525 EHVL     VLIELAND   NLD   10 m.
METAR EHVL 150525Z AUTO 27010KT 9999 FEW013 15/13 Q1011 BLU=

ZCZC
SA150525 EHJR     K13-A   NLD   37 m.
METAR EHJR 150525Z AUTO 30003KT //// // ///////// 15/13 Q1011 RE//
W16/H12=

ZCZC
SA150525 EHLE     LELYSTAD/LELYSTAD   NLD   -3 m.
METAR EHLE 150525Z AUTO 15003KT 9999 NCD 14/12 Q1012=

ZCZC
SA150525 EHLW     LEEUWARDEN/LEEUWARDEN   NLD   1 m.
METAR EHLW 150525Z AUTO 20004KT 170V230 9000 BR SCT014 15/14 Q1012 BLU=

ZCZC
SA150525 EHDL     ARNHEM/DEELEN   NLD   48 m.
METAR EHDL 150525Z AUTO VRB02KT 9999 NCD 15/12 Q1013 BLU=

ZCZC
SA150525 EHGG     GRONINGEN/EELDE   NLD   5 m.
METAR EHGG 150525Z AUTO 20004KT 150V230 9999 NCD 13/11 Q1012 NOSIG=

ZCZC
SA150525 EHSC     LICHTEILAND GOEREE   NLD   22 m.
METAR EHSC 150525Z AUTO 18007KT 9999 ///////// 18/14 Q1012 W17/H8=

ZCZC
SA150525 EHSA     EURO PLATFORM   NLD   19 m.
METAR EHSA 150525Z AUTO 18004KT 9999 ///////// 17/14 Q1011 W17/H8=

ZCZC
SA150525 EHWO     WOENSDRECHT/WOENSDRECHT   NLD   19 m.
METAR EHWO 150525Z AUTO VRB01KT 9999 NCD 15/13 Q1012 BLU=

ZCZC
SA150525 EHRD     ROTTERDAM/THE HAGUE AIRPORT   NLD   -5 m.
METAR EHRD 150525Z AUTO 14003KT 110V200 9999 NCD 16/13 Q1012 NOSIG=

ZCZC
SA150525 EHGR     GILZE-RIJEN/GILZE-RIJEN   NLD   14 m.
METAR EHGR 150525Z AUTO VRB02KT 9999 BKN260 14/13 Q1012 BLU=

ZCZC
SA150525 EHEH     EINDHOVEN/EINDHOVEN   NLD   22 m.
METAR EHEH 150525Z AUTO VRB02KT 9999 OVC260 14/13 Q1012
BLU NOSIG RMK TREND REMOTE BY EHWX=

ZCZC
SA150525 EHVK     VOLKEL/VOLKEL   NLD   21 m.
METAR EHVK 150525Z AUTO 15003KT 110V180 9999 NCD 15/13 Q1012 BLU=

ZCZC
SA150525 EHBK     MAASTRICHT/MAASTRICHT-AACHEN   NLD   114 m.
METAR EHBK 150525Z AUTO 16004KT 9999 NCD 16/13 Q1013 NOSIG=

ZCZC
SA150525 EHKV     K14-FA-1C   NLD   41 m.
METAR EHKV 150525Z AUTO VRB05KT 9999 NCD 15/12 Q1011=

ZCZC
SA150525 EHMG     L9-FF-1   NLD   44 m.
METAR EHMG 150525Z AUTO 26014KT 9999 BKN011 BKN014 15/12 Q1012=

ZCZC
SA150525 EHMA     AWG-1   NLD   40 m.
METAR EHMA 150525Z AUTO 26012KT //// // SCT014 BKN017 16/13 Q1011
RE//=

ZCZC
SA150525 EHDV     D15-FA-1   NLD   42 m.
METAR EHDV 150525Z AUTO 27014KT 230V300 9999 SCT012/// BKN014///
OVC016/// 14/12 Q1010=

ZCZC
SA150525 EHAK     A12-CPP   NLD   48 m.
METAR EHAK 150525Z AUTO 30013KT 9999 BKN003/// OVC005/// 14/13 Q1008=

ZCZC
SA150525 EHJA     J6-A   NLD   45 m.
METAR EHJA 150525Z AUTO 29008KT 9999 FEW011/// BKN018/// OVC028///
14/12 Q1011=

ZCZC
SA150525 EHPG     P11-B   NLD   41 m.
METAR EHPG 150525Z AUTO 20007KT 160V260 9999 NCD 16/15 Q1012=

ZCZC
SA150525 EHHW     BUITENGAATS/BG-OHVS2      42 m.
METAR EHHW 150525Z AUTO 24013G23KT 210V290 9999 FEW007/// BKN008///
BKN009/// 15/13 Q1010=

15/07/2024 07.30 uur LT